createdAt,value
2018-04-15T00:01:35.315Z,92.38
2018-04-15T00:04:02.802Z,92.40
2018-04-15T00:06:30.336Z,92.31
2018-04-15T00:08:57.833Z,92.26
2018-04-15T00:11:25.345Z,92.24
2018-04-15T00:13:52.837Z,92.14
2018-04-15T00:16:20.328Z,92.07
2018-04-15T00:18:47.833Z,92.11
2018-04-15T00:21:15.375Z,91.99
2018-04-15T00:23:42.974Z,91.73
2018-04-15T00:26:10.444Z,91.55
2018-04-15T00:28:37.929Z,91.51
2018-04-15T00:31:05.428Z,91.56
2018-04-15T00:33:32.946Z,91.55
2018-04-15T00:36:00.474Z,91.51
2018-04-15T00:38:27.946Z,91.48
2018-04-15T00:40:55.455Z,91.59
2018-04-15T00:43:23.025Z,91.69
2018-04-15T00:45:50.520Z,91.77
2018-04-15T00:48:17.996Z,91.80
2018-04-15T00:50:45.489Z,91.69
2018-04-15T00:53:13.008Z,91.66
2018-04-15T00:55:40.492Z,91.74
2018-04-15T00:58:08.077Z,91.85
2018-04-15T01:00:35.596Z,91.96
2018-04-15T01:03:03.105Z,92.00
2018-04-15T01:05:30.612Z,91.93
2018-04-15T01:07:58.098Z,91.95
2018-04-15T01:10:25.613Z,91.86
2018-04-15T01:12:53.370Z,91.85
2018-04-15T01:15:20.846Z,91.91
2018-04-15T01:17:48.386Z,91.82
2018-04-15T01:20:15.867Z,91.78
2018-04-15T01:22:43.337Z,91.79
2018-04-15T01:25:10.796Z,91.51
2018-04-15T01:27:38.309Z,91.42
2018-04-15T01:30:05.780Z,91.49
2018-04-15T01:32:33.282Z,91.50
2018-04-15T01:35:00.830Z,91.50
2018-04-15T01:37:28.332Z,91.44
2018-04-15T01:39:55.824Z,91.25
2018-04-15T01:42:23.305Z,91.15
2018-04-15T01:44:50.814Z,91.24
2018-04-15T01:47:18.318Z,91.31
2018-04-15T01:49:46.012Z,91.22
2018-04-15T01:52:13.515Z,91.27
2018-04-15T01:54:40.985Z,91.39
2018-04-15T01:57:08.463Z,91.42
2018-04-15T01:59:36.044Z,91.34
2018-04-15T02:02:03.503Z,91.25
2018-04-15T02:04:31.061Z,91.24
2018-04-15T02:06:58.620Z,91.07
2018-04-15T02:09:26.117Z,90.87
2018-04-15T02:11:53.602Z,90.94
2018-04-15T02:14:21.058Z,91.03
2018-04-15T02:16:48.652Z,91.15
2018-04-15T02:19:16.149Z,91.16
2018-04-15T02:21:43.632Z,91.37
2018-04-15T02:24:11.130Z,91.60
2018-04-15T02:26:38.603Z,91.66
2018-04-15T02:29:06.076Z,91.75
2018-04-15T02:31:33.570Z,91.78
2018-04-15T02:34:01.061Z,91.77
2018-04-15T02:36:28.519Z,91.75
2018-04-15T02:38:56.039Z,91.65
2018-04-15T02:41:23.554Z,91.64
2018-04-15T02:43:51.100Z,91.61
2018-04-15T02:46:18.584Z,91.57
2018-04-15T02:48:46.052Z,91.53
2018-04-15T02:51:13.513Z,91.50
2018-04-15T02:53:41.010Z,91.59
2018-04-15T02:56:08.473Z,91.66
2018-04-15T02:58:35.979Z,91.72
2018-04-15T03:01:03.433Z,91.82
2018-04-15T03:03:30.940Z,91.88
2018-04-15T03:05:58.443Z,92.02
2018-04-15T03:08:25.996Z,92.00
2018-04-15T03:10:53.485Z,92.00
2018-04-15T03:13:20.973Z,92.06
2018-04-15T03:15:48.469Z,92.25
2018-04-15T03:18:15.940Z,92.28
2018-04-15T03:20:43.397Z,92.25
2018-04-15T03:23:10.891Z,92.27
2018-04-15T03:25:38.352Z,92.27
2018-04-15T03:28:05.807Z,92.20
2018-04-15T03:30:33.381Z,92.20
2018-04-15T03:33:00.896Z,92.18
2018-04-15T03:35:28.500Z,92.28
2018-04-15T03:37:55.997Z,92.43
2018-04-15T03:40:23.472Z,92.46
2018-04-15T03:42:51.450Z,92.54
2018-04-15T03:45:18.912Z,92.60
2018-04-15T03:47:46.451Z,92.59
2018-04-15T03:50:13.948Z,92.49
2018-04-15T03:52:41.419Z,92.50
2018-04-15T03:55:08.899Z,92.51
2018-04-15T03:57:36.388Z,92.56
2018-04-15T04:00:03.875Z,92.61
2018-04-15T04:02:31.357Z,92.61
2018-04-15T04:04:58.859Z,92.50
2018-04-15T04:07:26.455Z,92.53
2018-04-15T04:09:53.930Z,92.78
2018-04-15T04:12:21.445Z,92.90
2018-04-15T04:14:48.916Z,93.11
2018-04-15T04:17:16.404Z,93.15
2018-04-15T04:19:55.761Z,93.28
2018-04-15T04:22:35.031Z,93.31
2018-04-15T04:25:15.420Z,93.27
2018-04-15T04:27:42.882Z,93.21
2018-04-15T04:30:10.349Z,93.15
2018-04-15T04:32:37.824Z,93.14
2018-04-15T04:35:05.317Z,93.05
2018-04-15T04:37:32.891Z,92.98
2018-04-15T04:40:00.388Z,92.84
2018-04-15T04:42:27.907Z,93.04
2018-04-15T04:44:55.388Z,92.93
2018-04-15T04:47:22.917Z,92.71
2018-04-15T04:49:50.381Z,92.40
2018-04-15T04:52:17.848Z,92.42
2018-04-15T04:54:45.348Z,91.83
2018-04-15T04:57:12.836Z,91.94
2018-04-15T04:59:40.348Z,91.74
2018-04-15T05:02:12.791Z,91.51
2018-04-15T05:04:40.272Z,91.05
2018-04-15T05:07:07.851Z,91.07
2018-04-15T05:09:35.312Z,90.92
2018-04-15T05:12:02.767Z,91.08
2018-04-15T05:14:30.286Z,90.83
2018-04-15T05:16:57.739Z,90.43
2018-04-15T05:19:25.248Z,89.99
2018-04-15T05:21:52.750Z,89.61
2018-04-15T05:24:20.281Z,89.06
2018-04-15T05:26:47.814Z,88.68
2018-04-15T05:29:15.349Z,88.38
2018-04-15T05:31:42.845Z,87.98
2018-04-15T05:34:10.349Z,87.78
2018-04-15T05:36:37.903Z,87.28
2018-04-15T05:39:06.185Z,87.01
2018-04-15T05:41:33.783Z,86.94
2018-04-15T05:44:01.304Z,86.87
2018-04-15T05:46:28.880Z,86.64
2018-04-15T05:48:56.424Z,86.67
2018-04-15T05:51:23.885Z,86.80
2018-04-15T05:53:51.512Z,86.63
2018-04-15T05:56:19.029Z,86.82
2018-04-15T05:58:46.525Z,86.67
2018-04-15T06:01:14.021Z,86.11
2018-04-15T06:03:41.553Z,85.66
2018-04-15T06:06:09.054Z,85.58
2018-04-15T06:08:36.581Z,86.46
2018-04-15T06:11:04.107Z,86.00
2018-04-15T06:13:31.559Z,84.81
2018-04-15T06:15:59.063Z,84.46
2018-04-15T06:18:26.537Z,83.21
2018-04-15T06:20:54.044Z,82.51
2018-04-15T06:23:21.532Z,81.34
2018-04-15T06:25:49.020Z,81.11
2018-04-15T06:28:16.576Z,80.75
2018-04-15T06:30:44.050Z,80.48
2018-04-15T06:33:11.510Z,80.70
2018-04-15T06:35:38.970Z,80.54
2018-04-15T06:38:06.445Z,80.37
2018-04-15T06:40:33.943Z,80.06
2018-04-15T06:43:01.400Z,80.63
2018-04-15T06:45:28.899Z,80.70
2018-04-15T06:47:56.357Z,81.42
2018-04-15T06:50:23.818Z,81.05
2018-04-15T06:52:51.307Z,80.94
2018-04-15T06:55:18.778Z,80.30
2018-04-15T06:57:46.288Z,80.75
2018-04-15T07:00:13.800Z,79.35
2018-04-15T07:02:41.301Z,79.06
2018-04-15T07:05:08.765Z,79.92
2018-04-15T07:07:36.224Z,80.36
2018-04-15T07:10:03.754Z,79.49
2018-04-15T07:12:31.223Z,78.83
2018-04-15T07:14:58.751Z,78.36
2018-04-15T07:17:26.228Z,76.80
2018-04-15T07:19:53.683Z,76.34
2018-04-15T07:22:21.244Z,76.13
2018-04-15T07:24:48.788Z,76.57
2018-04-15T07:27:16.371Z,76.75
2018-04-15T07:29:43.844Z,76.15
2018-04-15T07:32:11.315Z,75.74
2018-04-15T07:34:38.836Z,75.46
2018-04-15T07:37:06.300Z,75.22
2018-04-15T07:39:33.809Z,74.78
2018-04-15T07:42:01.316Z,74.55
2018-04-15T07:44:28.805Z,73.99
2018-04-15T07:46:56.316Z,72.23
2018-04-15T07:49:23.777Z,71.30
2018-04-15T07:51:51.274Z,69.67
2018-04-15T07:54:18.799Z,70.22
2018-04-15T07:56:46.264Z,68.96
2018-04-15T07:59:13.723Z,68.85
2018-04-15T08:01:41.201Z,68.36
2018-04-15T08:04:08.685Z,67.72
2018-04-15T08:06:36.223Z,66.95
2018-04-15T08:09:03.749Z,67.60
2018-04-15T08:11:31.239Z,67.45
2018-04-15T08:13:58.724Z,67.37
2018-04-15T08:16:26.224Z,67.50
2018-04-15T08:18:53.756Z,67.12
2018-04-15T08:21:21.263Z,66.87
2018-04-15T08:23:48.783Z,66.08
2018-04-15T08:26:16.875Z,65.43
2018-04-15T08:28:44.452Z,65.31
2018-04-15T08:31:12.071Z,65.36
2018-04-15T08:33:39.600Z,64.20
2018-04-15T08:36:07.147Z,64.39
2018-04-15T08:38:34.632Z,64.52
2018-04-15T08:41:02.115Z,64.35
2018-04-15T08:43:29.591Z,62.99
2018-04-15T08:45:57.047Z,61.70
2018-04-15T08:48:24.614Z,60.21
2018-04-15T08:50:52.122Z,60.52
2018-04-15T08:53:19.604Z,58.55
2018-04-15T08:55:47.079Z,56.98
2018-04-15T08:58:14.563Z,56.72
2018-04-15T09:00:42.063Z,57.11
2018-04-15T09:03:09.596Z,57.29
2018-04-15T09:05:37.099Z,55.42
2018-04-15T09:08:04.582Z,55.59
2018-04-15T09:10:32.133Z,55.11
2018-04-15T09:12:59.624Z,54.95
2018-04-15T09:15:27.077Z,54.51
2018-04-15T09:17:54.590Z,54.71
2018-04-15T09:20:22.084Z,54.06
2018-04-15T09:22:49.548Z,53.78
2018-04-15T09:25:17.011Z,53.84
2018-04-15T09:27:44.500Z,54.27
2018-04-15T09:30:12.049Z,53.74
2018-04-15T09:32:39.496Z,53.98
2018-04-15T09:35:06.974Z,52.58
2018-04-15T09:37:34.475Z,52.89
2018-04-15T09:40:02.000Z,52.94
2018-04-15T09:42:29.494Z,52.26
2018-04-15T09:44:57.077Z,53.20
2018-04-15T09:47:24.640Z,53.05
2018-04-15T09:49:52.162Z,52.46
2018-04-15T09:52:19.615Z,51.74
2018-04-15T09:54:47.108Z,51.10
2018-04-15T09:57:14.624Z,51.07
2018-04-15T09:59:42.123Z,50.48
2018-04-15T10:02:09.631Z,50.88
2018-04-15T10:04:37.096Z,49.57
2018-04-15T10:07:04.636Z,49.58
2018-04-15T10:09:32.095Z,49.71
2018-04-15T10:11:59.579Z,49.63
2018-04-15T10:14:27.081Z,48.06
2018-04-15T10:16:54.620Z,48.63
2018-04-15T10:19:22.119Z,47.80
2018-04-15T10:21:49.603Z,47.93
2018-04-15T10:24:17.078Z,47.52
2018-04-15T10:26:44.610Z,47.36
2018-04-15T10:29:12.088Z,47.11
2018-04-15T10:31:39.592Z,46.68
2018-04-15T10:34:07.111Z,46.11
2018-04-15T10:36:34.622Z,46.89
2018-04-15T10:39:02.162Z,46.46
2018-04-15T10:41:29.676Z,46.01
2018-04-15T10:43:57.173Z,45.17
2018-04-15T10:46:24.635Z,45.16
2018-04-15T10:48:52.116Z,45.53
2018-04-15T10:51:19.582Z,43.90
2018-04-15T10:53:47.046Z,44.95
2018-04-15T10:56:14.589Z,44.80
2018-04-15T10:58:42.095Z,44.66
2018-04-15T11:01:09.665Z,43.82
2018-04-15T11:03:37.197Z,41.64
2018-04-15T11:06:04.646Z,41.41
2018-04-15T11:08:32.120Z,41.55
2018-04-15T11:10:59.626Z,41.44
2018-04-15T11:13:27.085Z,39.39
2018-04-15T11:15:54.619Z,39.55
2018-04-15T11:18:22.112Z,40.65
2018-04-15T11:20:49.641Z,41.77
2018-04-15T11:23:17.115Z,41.91
2018-04-15T11:25:44.579Z,39.92
2018-04-15T11:28:12.049Z,39.90
2018-04-15T11:30:39.542Z,40.50
2018-04-15T11:33:06.997Z,39.50
2018-04-15T11:35:34.580Z,39.86
2018-04-15T11:38:02.133Z,40.37
2018-04-15T11:40:29.617Z,40.70
2018-04-15T11:42:57.124Z,39.79
2018-04-15T11:45:24.630Z,39.46
2018-04-15T11:47:52.141Z,39.02
2018-04-15T11:50:19.610Z,38.48
2018-04-15T11:52:47.201Z,37.92
2018-04-15T11:55:14.663Z,37.77
2018-04-15T11:57:42.128Z,38.08
2018-04-15T12:00:09.636Z,38.51
2018-04-15T12:02:37.083Z,36.83
2018-04-15T12:05:04.535Z,37.31
2018-04-15T12:07:32.024Z,36.20
2018-04-15T12:09:59.480Z,36.46
2018-04-15T12:12:26.985Z,36.38
2018-04-15T12:14:54.463Z,36.71
2018-04-15T12:17:21.950Z,37.04
2018-04-15T12:19:49.396Z,36.55
2018-04-15T12:22:16.870Z,35.19
2018-04-15T12:24:44.421Z,34.04
2018-04-15T12:27:12.027Z,33.87
2018-04-15T12:29:39.528Z,33.80
2018-04-15T12:32:06.985Z,33.40
2018-04-15T12:34:34.482Z,33.02
2018-04-15T12:37:01.939Z,33.45
2018-04-15T12:39:29.413Z,33.50
2018-04-15T12:41:56.908Z,33.71
2018-04-15T12:44:24.374Z,34.07
2018-04-15T12:46:51.825Z,34.20
2018-04-15T12:49:19.377Z,34.40
2018-04-15T12:51:46.865Z,34.65
2018-04-15T12:54:14.356Z,34.54
2018-04-15T12:56:41.913Z,34.18
2018-04-15T12:59:09.552Z,33.45
2018-04-15T13:01:36.992Z,33.51
2018-04-15T13:04:04.576Z,33.56
2018-04-15T13:06:32.090Z,34.27
2018-04-15T13:08:59.603Z,35.62
2018-04-15T13:11:27.108Z,35.92
2018-04-15T13:13:54.563Z,36.12
2018-04-15T13:16:22.085Z,36.07
2018-04-15T13:18:49.566Z,35.27
2018-04-15T13:21:17.028Z,35.35
2018-04-15T13:23:44.527Z,35.08
2018-04-15T13:26:12.014Z,35.14
2018-04-15T13:28:39.457Z,35.34
2018-04-15T13:31:06.981Z,35.16
2018-04-15T13:33:34.495Z,35.24
2018-04-15T13:36:01.955Z,35.00
2018-04-15T13:38:29.497Z,35.15
2018-04-15T13:40:56.996Z,35.01
2018-04-15T13:43:24.517Z,35.69
2018-04-15T13:45:51.986Z,35.45
2018-04-15T13:48:19.476Z,35.58
2018-04-15T13:50:46.972Z,35.57
2018-04-15T13:53:14.529Z,35.61
2018-04-15T13:55:42.010Z,35.77
2018-04-15T13:58:09.502Z,35.66
2018-04-15T14:00:36.990Z,36.31
2018-04-15T14:03:04.487Z,36.07
2018-04-15T14:05:32.006Z,36.41
2018-04-15T14:07:59.517Z,35.72
2018-04-15T14:10:27.003Z,35.60
2018-04-15T14:12:54.459Z,35.71
2018-04-15T14:15:21.970Z,35.85
2018-04-15T14:17:49.426Z,35.45
2018-04-15T14:20:16.913Z,35.88
2018-04-15T14:22:44.408Z,35.30
2018-04-15T14:25:11.990Z,34.89
2018-04-15T14:27:39.554Z,34.58
2018-04-15T14:30:07.057Z,34.23
2018-04-15T14:32:34.512Z,34.46
2018-04-15T14:35:02.042Z,35.03
2018-04-15T14:37:29.523Z,35.27
2018-04-15T14:39:57.000Z,34.41
2018-04-15T14:42:24.477Z,34.65
2018-04-15T14:44:51.989Z,35.14
2018-04-15T14:47:19.502Z,35.58
2018-04-15T14:49:46.972Z,35.76
2018-04-15T14:52:14.503Z,35.95
2018-04-15T14:54:41.955Z,35.77
2018-04-15T14:57:09.403Z,35.53
2018-04-15T14:59:36.864Z,34.84
2018-04-15T15:02:04.363Z,34.93
2018-04-15T15:04:31.831Z,35.32
2018-04-15T15:06:59.287Z,36.17
2018-04-15T15:09:26.809Z,36.52
2018-04-15T15:11:54.358Z,36.54
2018-04-15T15:14:22.042Z,36.49
2018-04-15T15:16:49.609Z,36.75
2018-04-15T15:19:17.172Z,37.19
2018-04-15T15:21:44.644Z,36.84
2018-04-15T15:24:12.115Z,37.05
2018-04-15T15:26:39.599Z,37.26
2018-04-15T15:29:07.112Z,36.72
2018-04-15T15:31:34.613Z,36.59
2018-04-15T15:34:02.067Z,36.92
2018-04-15T15:36:29.686Z,36.33
2018-04-15T15:38:57.142Z,35.36
2018-04-15T15:41:24.665Z,33.18
2018-04-15T15:43:52.119Z,32.25
2018-04-15T15:46:19.679Z,31.28
2018-04-15T15:48:47.209Z,32.00
2018-04-15T15:51:14.672Z,32.36
2018-04-15T15:53:42.120Z,31.55
2018-04-15T15:56:09.595Z,31.08
2018-04-15T15:58:37.065Z,30.57
2018-04-15T16:01:04.657Z,30.11
2018-04-15T16:03:32.107Z,29.11
2018-04-15T16:05:59.583Z,28.78
2018-04-15T16:08:27.113Z,29.86
2018-04-15T16:10:54.813Z,30.12
2018-04-15T16:13:22.340Z,31.54
2018-04-15T16:15:49.841Z,32.21
2018-04-15T16:18:17.376Z,32.86
2018-04-15T16:20:44.925Z,33.47
2018-04-15T16:23:12.478Z,33.32
2018-04-15T16:25:39.964Z,32.98
2018-04-15T16:28:07.411Z,32.33
2018-04-15T16:30:34.885Z,32.71
2018-04-15T16:33:02.390Z,33.08
2018-04-15T16:35:29.856Z,33.04
2018-04-15T16:37:57.400Z,33.09
2018-04-15T16:40:24.901Z,33.65
2018-04-15T16:42:52.387Z,34.69
2018-04-15T16:45:19.927Z,35.06
2018-04-15T16:47:47.413Z,35.44
2018-04-15T16:50:14.867Z,35.79
2018-04-15T16:52:42.386Z,35.89
2018-04-15T16:55:09.872Z,36.32
2018-04-15T16:57:37.344Z,36.61
2018-04-15T17:00:04.850Z,36.76
2018-04-15T17:02:32.375Z,37.24
2018-04-15T17:04:59.853Z,37.51
2018-04-15T17:07:27.336Z,38.66
2018-04-15T17:09:54.881Z,39.40
2018-04-15T17:12:22.343Z,39.47
2018-04-15T17:14:49.825Z,39.50
2018-04-15T17:17:17.309Z,39.47
2018-04-15T17:19:44.830Z,39.38
2018-04-15T17:22:12.300Z,39.12
2018-04-15T17:24:39.891Z,40.03
2018-04-15T17:27:07.315Z,40.24
2018-04-15T17:29:34.912Z,40.13
2018-04-15T17:32:02.406Z,40.56
2018-04-15T17:34:29.995Z,41.04
2018-04-15T17:36:57.761Z,41.42
2018-04-15T17:39:25.238Z,41.03
2018-04-15T17:41:52.745Z,41.61
2018-04-15T17:44:20.208Z,41.95
2018-04-15T17:46:47.705Z,42.09
2018-04-15T17:49:15.200Z,42.93
2018-04-15T17:51:42.711Z,43.40
2018-04-15T17:54:10.258Z,43.16
2018-04-15T17:56:37.722Z,43.68
2018-04-15T17:59:05.220Z,44.15
2018-04-15T18:01:32.695Z,44.55
2018-04-15T18:04:00.209Z,46.30
2018-04-15T18:06:27.727Z,45.36
2018-04-15T18:08:55.233Z,45.12
2018-04-15T18:11:22.756Z,45.74
2018-04-15T18:13:50.302Z,46.96
2018-04-15T18:16:17.740Z,49.17
2018-04-15T18:18:45.239Z,49.09
2018-04-15T18:21:12.706Z,49.29
2018-04-15T18:23:40.317Z,47.89
2018-04-15T18:26:07.792Z,47.66
2018-04-15T18:28:35.391Z,47.74
2018-04-15T18:31:02.905Z,47.79
2018-04-15T18:33:30.397Z,48.61
2018-04-15T18:35:57.948Z,50.94
2018-04-15T18:38:25.496Z,51.31
2018-04-15T18:40:53.025Z,52.32
2018-04-15T18:43:20.491Z,51.61
2018-04-15T18:45:48.020Z,51.17
2018-04-15T18:48:15.483Z,52.22
2018-04-15T18:50:42.945Z,52.55
2018-04-15T18:53:10.441Z,51.26
2018-04-15T18:55:37.935Z,50.56
2018-04-15T18:58:05.445Z,50.91
2018-04-15T19:00:32.950Z,51.87
2018-04-15T19:03:00.416Z,52.40
2018-04-15T19:05:28.047Z,52.20
2018-04-15T19:07:55.579Z,52.14
2018-04-15T19:10:23.065Z,50.99
2018-04-15T19:12:51.109Z,51.42
2018-04-15T19:15:18.638Z,51.08
2018-04-15T19:17:46.142Z,50.75
2018-04-15T19:20:13.625Z,50.52
2018-04-15T19:22:41.255Z,50.98
2018-04-15T19:25:08.719Z,50.77
2018-04-15T19:27:36.213Z,50.20
2018-04-15T19:30:03.713Z,49.79
2018-04-15T19:32:31.343Z,49.86
2018-04-15T19:34:58.901Z,49.87
2018-04-15T19:37:26.376Z,49.67
2018-04-15T19:39:53.865Z,49.61
2018-04-15T19:42:21.361Z,49.95
2018-04-15T19:44:48.873Z,50.10
2018-04-15T19:47:16.440Z,50.38
2018-04-15T19:49:44.033Z,51.22
2018-04-15T19:52:11.555Z,51.92
2018-04-15T19:54:39.084Z,51.81
2018-04-15T19:57:06.690Z,51.34
2018-04-15T19:59:34.285Z,50.72
2018-04-15T20:02:01.822Z,50.85
2018-04-15T20:04:29.314Z,51.80
2018-04-15T20:06:56.845Z,51.81
2018-04-15T20:09:24.352Z,51.58
2018-04-15T20:11:51.842Z,51.97
2018-04-15T20:14:19.413Z,52.53
2018-04-15T20:16:46.919Z,51.57
2018-04-15T20:19:14.478Z,51.35
2018-04-15T20:21:41.957Z,51.74
2018-04-15T20:24:09.449Z,51.93
2018-04-15T20:26:36.899Z,52.36
2018-04-15T20:29:04.421Z,52.92
2018-04-15T20:31:31.896Z,53.63
2018-04-15T20:33:59.382Z,54.01
2018-04-15T20:36:26.936Z,54.52
2018-04-15T20:38:54.388Z,55.51
2018-04-15T20:41:21.871Z,56.90
2018-04-15T20:43:49.495Z,57.79
2018-04-15T20:46:16.981Z,58.28
2018-04-15T20:48:44.569Z,58.75
2018-04-15T20:51:12.025Z,59.47
2018-04-15T20:53:39.509Z,59.81
2018-04-15T20:56:06.992Z,60.36
2018-04-15T20:58:34.489Z,60.89
2018-04-15T21:01:01.968Z,61.45
2018-04-15T21:03:29.467Z,62.00
2018-04-15T21:05:56.949Z,62.68
2018-04-15T21:08:24.430Z,63.23
2018-04-15T21:10:51.910Z,63.91
2018-04-15T21:13:19.409Z,64.50
2018-04-15T21:15:46.972Z,64.96
2018-04-15T21:18:14.456Z,65.37
2018-04-15T21:20:41.932Z,65.96
2018-04-15T21:23:09.417Z,66.13
2018-04-15T21:25:36.929Z,66.57
2018-04-15T21:28:04.497Z,66.46
2018-04-15T21:30:31.960Z,66.96
2018-04-15T21:32:59.420Z,67.16
2018-04-15T21:35:26.903Z,67.56
2018-04-15T21:37:54.360Z,67.80
2018-04-15T21:40:21.833Z,67.90
2018-04-15T21:42:49.360Z,68.33
2018-04-15T21:45:16.922Z,68.22
2018-04-15T21:47:44.421Z,68.41
2018-04-15T21:50:11.903Z,68.53
2018-04-15T21:52:39.397Z,68.62
2018-04-15T21:55:06.891Z,68.80
2018-04-15T21:57:34.409Z,68.98
2018-04-15T22:00:01.891Z,69.18
2018-04-15T22:02:29.352Z,69.38
2018-04-15T22:04:56.842Z,69.40
2018-04-15T22:07:24.352Z,69.69
2018-04-15T22:09:51.837Z,69.85
2018-04-15T22:12:19.752Z,69.89
2018-04-15T22:14:47.303Z,69.95
2018-04-15T22:17:14.763Z,69.80
2018-04-15T22:19:42.270Z,70.21
2018-04-15T22:22:09.867Z,70.62
2018-04-15T22:24:37.359Z,70.82
2018-04-15T22:27:04.976Z,70.87
2018-04-15T22:29:32.465Z,71.08
2018-04-15T22:32:00.013Z,71.27
2018-04-15T22:34:27.524Z,71.38
2018-04-15T22:36:55.044Z,71.70
2018-04-15T22:39:22.528Z,71.76
2018-04-15T22:41:50.028Z,71.96
2018-04-15T22:44:17.499Z,71.99
2018-04-15T22:46:45.079Z,72.17
2018-04-15T22:49:18.228Z,72.02
2018-04-15T22:51:45.743Z,72.18
2018-04-15T22:54:13.243Z,72.34
2018-04-15T22:56:43.566Z,72.77
2018-04-15T22:59:11.088Z,72.99
2018-04-15T23:01:38.554Z,73.04
2018-04-15T23:04:06.058Z,73.37
2018-04-15T23:06:33.565Z,73.43
2018-04-15T23:09:01.033Z,73.39
2018-04-15T23:11:28.545Z,73.68
2018-04-15T23:13:56.043Z,73.99
2018-04-15T23:16:23.509Z,74.14
2018-04-15T23:18:50.969Z,74.13
2018-04-15T23:21:18.476Z,74.08
2018-04-15T23:23:45.973Z,73.96
2018-04-15T23:26:13.439Z,73.80
2018-04-15T23:28:41.045Z,73.61
2018-04-15T23:31:08.509Z,73.82
2018-04-15T23:33:36.000Z,74.11
2018-04-15T23:36:03.465Z,74.00
2018-04-15T23:38:30.989Z,74.08
2018-04-15T23:40:58.486Z,73.86
2018-04-15T23:43:26.076Z,74.02
2018-04-15T23:45:53.533Z,74.27
2018-04-15T23:48:21.027Z,74.46
2018-04-15T23:50:48.519Z,74.65
2018-04-15T23:53:15.975Z,74.63
2018-04-15T23:55:43.434Z,74.63
2018-04-15T23:58:10.940Z,74.73
